sensor_id;sensor_type;location;lat;lon;timestamp;pressure;altitude;pressure_sealevel;temperature
7882;BMP180;3986;41.884;23.466;2022-10-16T10:53:07;92739.00;;;40.10
7882;BMP180;3986;41.884;23.466;2022-10-16T10:55:40;92742.00;;;39.50
7882;BMP180;3986;41.884;23.466;2022-10-16T10:58:38;92735.00;;;40.80
7882;BMP180;3986;41.884;23.466;2022-10-16T11:01:11;92728.00;;;32.10
7882;BMP180;3986;41.884;23.466;2022-10-16T11:03:54;92649.00;;;37.90
7882;BMP180;3986;41.884;23.466;2022-10-16T11:06:26;92749.00;;;39.40
7882;BMP180;3986;41.884;23.466;2022-10-16T11:09:01;92727.00;;;40.40
7882;BMP180;3986;41.884;23.466;2022-10-16T11:11:33;92709.00;;;40.40
7882;BMP180;3986;41.884;23.466;2022-10-16T11:14:04;92718.00;;;40.10
7882;BMP180;3986;41.884;23.466;2022-10-16T11:16:36;92723.00;;;39.20
7882;BMP180;3986;41.884;23.466;2022-10-16T11:19:11;92716.00;;;40.20
7882;BMP180;3986;41.884;23.466;2022-10-16T11:21:43;92715.00;;;40.30
7882;BMP180;3986;41.884;23.466;2022-10-16T11:24:20;92714.00;;;40.90
7882;BMP180;3986;41.884;23.466;2022-10-16T11:26:50;92697.00;;;33.50
7882;BMP180;3986;41.884;23.466;2022-10-16T11:29:24;92717.00;;;31.50
7882;BMP180;3986;41.884;23.466;2022-10-16T11:31:54;92688.00;;;38.80
7882;BMP180;3986;41.884;23.466;2022-10-16T11:34:28;92708.00;;;38.50
7882;BMP180;3986;41.884;23.466;2022-10-16T11:37:02;92704.00;;;38.00
7882;BMP180;3986;41.884;23.466;2022-10-16T11:39:33;92631.00;;;32.60
7882;BMP180;3986;41.884;23.466;2022-10-16T11:42:04;92702.00;;;35.30
7882;BMP180;3986;41.884;23.466;2022-10-16T11:44:43;92706.00;;;37.20
7882;BMP180;3986;41.884;23.466;2022-10-16T11:47:23;92703.00;;;37.20
7882;BMP180;3986;41.884;23.466;2022-10-16T11:49:57;92699.00;;;39.10
7882;BMP180;3986;41.884;23.466;2022-10-16T11:52:30;92675.00;;;39.10
7882;BMP180;3986;41.884;23.466;2022-10-16T11:55:03;92699.00;;;34.10
7882;BMP180;3986;41.884;23.466;2022-10-16T11:57:33;92609.00;;;34.60
7882;BMP180;3986;41.884;23.466;2022-10-16T12:00:06;92700.00;;;30.90
7882;BMP180;3986;41.884;23.466;2022-10-16T12:02:47;92692.00;;;29.10
7882;BMP180;3986;41.884;23.466;2022-10-16T12:05:22;92695.00;;;32.70
7882;BMP180;3986;41.884;23.466;2022-10-16T12:07:57;92693.00;;;30.00
7882;BMP180;3986;41.884;23.466;2022-10-16T12:10:29;92696.00;;;30.10
7882;BMP180;3986;41.884;23.466;2022-10-16T12:12:57;92700.00;;;30.70
7882;BMP180;3986;41.884;23.466;2022-10-16T12:15:26;92693.00;;;30.90
7882;BMP180;3986;41.884;23.466;2022-10-16T12:17:53;92710.00;;;31.60
7882;BMP180;3986;41.884;23.466;2022-10-16T12:20:27;92682.00;;;31.00
7882;BMP180;3986;41.884;23.466;2022-10-16T12:22:57;92689.00;;;29.40
7882;BMP180;3986;41.884;23.466;2022-10-16T12:25:29;92689.00;;;32.10
7882;BMP180;3986;41.884;23.466;2022-10-16T12:27:58;92694.00;;;31.50
7882;BMP180;3986;41.884;23.466;2022-10-16T12:30:27;92689.00;;;29.70
7882;BMP180;3986;41.884;23.466;2022-10-16T12:32:56;92688.00;;;26.90
7882;BMP180;3986;41.884;23.466;2022-10-16T12:35:26;92685.00;;;27.30
7882;BMP180;3986;41.884;23.466;2022-10-16T12:37:54;92690.00;;;28.50
7882;BMP180;3986;41.884;23.466;2022-10-16T12:40:33;92714.00;;;28.80
7882;BMP180;3986;41.884;23.466;2022-10-16T12:43:12;92692.00;;;29.60
7882;BMP180;3986;41.884;23.466;2022-10-16T12:45:39;92694.00;;;30.40
7882;BMP180;3986;41.884;23.466;2022-10-16T12:48:19;92689.00;;;27.50
7882;BMP180;3986;41.884;23.466;2022-10-16T12:50:46;92689.00;;;28.40
7882;BMP180;3986;41.884;23.466;2022-10-16T12:53:21;92669.00;;;29.10
7882;BMP180;3986;41.884;23.466;2022-10-16T12:55:57;92689.00;;;25.80
7882;BMP180;3986;41.884;23.466;2022-10-16T12:58:51;92696.00;;;27.70
7882;BMP180;3986;41.884;23.466;2022-10-16T13:01:29;92653.00;;;26.50
7882;BMP180;3986;41.884;23.466;2022-10-16T13:04:18;92697.00;;;25.60
7882;BMP180;3986;41.884;23.466;2022-10-16T13:06:53;92689.00;;;23.60
7882;BMP180;3986;41.884;23.466;2022-10-16T13:09:31;92690.00;;;24.50
7882;BMP180;3986;41.884;23.466;2022-10-16T13:12:18;92696.00;;;24.70
7882;BMP180;3986;41.884;23.466;2022-10-16T13:17:55;92699.00;;;24.40
7882;BMP180;3986;41.884;23.466;2022-10-16T13:20:31;92702.00;;;24.70
7882;BMP180;3986;41.884;23.466;2022-10-16T13:23:06;92707.00;;;23.30
7882;BMP180;3986;41.884;23.466;2022-10-16T13:25:47;92707.00;;;23.20
7882;BMP180;3986;41.884;23.466;2022-10-16T13:28:26;92707.00;;;23.10
7882;BMP180;3986;41.884;23.466;2022-10-16T13:30:55;92698.00;;;23.80
7882;BMP180;3986;41.884;23.466;2022-10-16T13:33:29;92711.00;;;25.40
7882;BMP180;3986;41.884;23.466;2022-10-16T13:35:57;92709.00;;;25.30
7882;BMP180;3986;41.884;23.466;2022-10-16T13:38:25;92709.00;;;24.70
7882;BMP180;3986;41.884;23.466;2022-10-16T13:40:54;92703.00;;;23.00
7882;BMP180;3986;41.884;23.466;2022-10-16T13:43:26;92707.00;;;23.70
7882;BMP180;3986;41.884;23.466;2022-10-16T13:45:59;92703.00;;;21.20
7882;BMP180;3986;41.884;23.466;2022-10-16T13:48:26;92699.00;;;21.60
7882;BMP180;3986;41.884;23.466;2022-10-16T13:51:05;92706.00;;;21.70
7882;BMP180;3986;41.884;23.466;2022-10-16T13:53:33;92707.00;;;21.90
7882;BMP180;3986;41.884;23.466;2022-10-16T13:56:03;92709.00;;;21.80
7882;BMP180;3986;41.884;23.466;2022-10-16T13:58:32;92704.00;;;21.50
7882;BMP180;3986;41.884;23.466;2022-10-16T14:01:00;92711.00;;;21.50
7882;BMP180;3986;41.884;23.466;2022-10-16T14:03:28;92646.00;;;21.00
7882;BMP180;3986;41.884;23.466;2022-10-16T14:05:58;92715.00;;;20.70
7882;BMP180;3986;41.884;23.466;2022-10-16T14:08:27;92718.00;;;21.20
7882;BMP180;3986;41.884;23.466;2022-10-16T14:10:56;92710.00;;;21.60
7882;BMP180;3986;41.884;23.466;2022-10-16T14:13:31;92717.00;;;20.90
7882;BMP180;3986;41.884;23.466;2022-10-16T14:16:00;92718.00;;;21.10
7882;BMP180;3986;41.884;23.466;2022-10-16T14:18:29;92689.00;;;21.40
7882;BMP180;3986;41.884;23.466;2022-10-16T14:21:03;92697.00;;;21.10
7882;BMP180;3986;41.884;23.466;2022-10-16T14:23:31;92737.00;;;20.90
7882;BMP180;3986;41.884;23.466;2022-10-16T14:26:12;92729.00;;;21.40
7882;BMP180;3986;41.884;23.466;2022-10-16T14:28:42;92723.00;;;21.00
7882;BMP180;3986;41.884;23.466;2022-10-16T14:31:27;92723.00;;;20.60
7882;BMP180;3986;41.884;23.466;2022-10-16T14:33:55;92729.00;;;20.90
7882;BMP180;3986;41.884;23.466;2022-10-16T14:36:23;92726.00;;;21.00
7882;BMP180;3986;41.884;23.466;2022-10-16T14:38:59;92735.00;;;19.80
7882;BMP180;3986;41.884;23.466;2022-10-16T14:41:27;92728.00;;;19.80
7882;BMP180;3986;41.884;23.466;2022-10-16T14:44:01;92737.00;;;20.10
7882;BMP180;3986;41.884;23.466;2022-10-16T14:46:32;92748.00;;;20.70
7882;BMP180;3986;41.884;23.466;2022-10-16T14:49:03;92752.00;;;21.20
7882;BMP180;3986;41.884;23.466;2022-10-16T14:51:31;92751.00;;;19.90
7882;BMP180;3986;41.884;23.466;2022-10-16T14:53:58;92751.00;;;20.00
7882;BMP180;3986;41.884;23.466;2022-10-16T14:56:29;92757.00;;;19.90
7882;BMP180;3986;41.884;23.466;2022-10-16T14:58:57;92768.00;;;19.70
7882;BMP180;3986;41.884;23.466;2022-10-16T15:01:24;92774.00;;;19.80
7882;BMP180;3986;41.884;23.466;2022-10-16T15:03:51;92780.00;;;19.60
7882;BMP180;3986;41.884;23.466;2022-10-16T15:06:20;92777.00;;;19.90
7882;BMP180;3986;41.884;23.466;2022-10-16T15:08:48;92784.00;;;19.70
7882;BMP180;3986;41.884;23.466;2022-10-16T15:11:16;92780.00;;;19.50
7882;BMP180;3986;41.884;23.466;2022-10-16T15:13:44;92798.00;;;18.90
7882;BMP180;3986;41.884;23.466;2022-10-16T15:16:14;92794.00;;;19.00
7882;BMP180;3986;41.884;23.466;2022-10-16T15:18:41;92795.00;;;18.90
7882;BMP180;3986;41.884;23.466;2022-10-16T15:21:08;92802.00;;;18.60
7882;BMP180;3986;41.884;23.466;2022-10-16T15:23:42;92798.00;;;18.20
7882;BMP180;3986;41.884;23.466;2022-10-16T15:26:09;92804.00;;;18.40
7882;BMP180;3986;41.884;23.466;2022-10-16T15:28:36;92813.00;;;18.40
7882;BMP180;3986;41.884;23.466;2022-10-16T15:31:04;92813.00;;;18.10
7882;BMP180;3986;41.884;23.466;2022-10-16T15:33:32;92814.00;;;18.50
7882;BMP180;3986;41.884;23.466;2022-10-16T15:36:01;92819.00;;;17.90
7882;BMP180;3986;41.884;23.466;2022-10-16T15:38:29;92828.00;;;17.80
7882;BMP180;3986;41.884;23.466;2022-10-16T15:40:56;92830.00;;;17.70
7882;BMP180;3986;41.884;23.466;2022-10-16T15:43:23;92829.00;;;17.50
7882;BMP180;3986;41.884;23.466;2022-10-16T15:45:59;92845.00;;;17.30
7882;BMP180;3986;41.884;23.466;2022-10-16T15:48:28;92849.00;;;17.20
7882;BMP180;3986;41.884;23.466;2022-10-16T15:50:56;92851.00;;;17.60
7882;BMP180;3986;41.884;23.466;2022-10-16T15:53:23;92867.00;;;17.40
7882;BMP180;3986;41.884;23.466;2022-10-16T15:55:50;92852.00;;;16.50
7882;BMP180;3986;41.884;23.466;2022-10-16T15:58:17;92816.00;;;16.30
7882;BMP180;3986;41.884;23.466;2022-10-16T16:00:44;92862.00;;;15.80
7882;BMP180;3986;41.884;23.466;2022-10-16T16:03:11;92866.00;;;16.10
7882;BMP180;3986;41.884;23.466;2022-10-16T16:05:38;92895.00;;;15.40
7882;BMP180;3986;41.884;23.466;2022-10-16T16:08:07;92878.00;;;15.40
7882;BMP180;3986;41.884;23.466;2022-10-16T16:10:34;92888.00;;;15.20
7882;BMP180;3986;41.884;23.466;2022-10-16T16:13:01;92891.00;;;15.00
7882;BMP180;3986;41.884;23.466;2022-10-16T16:15:27;92899.00;;;14.80
7882;BMP180;3986;41.884;23.466;2022-10-16T16:17:54;92903.00;;;14.90
7882;BMP180;3986;41.884;23.466;2022-10-16T16:20:21;92861.00;;;15.00
7882;BMP180;3986;41.884;23.466;2022-10-16T16:22:48;92907.00;;;15.10
7882;BMP180;3986;41.884;23.466;2022-10-16T16:25:16;92918.00;;;14.90
7882;BMP180;3986;41.884;23.466;2022-10-16T16:27:44;92911.00;;;15.00
7882;BMP180;3986;41.884;23.466;2022-10-16T16:30:11;92914.00;;;14.70
7882;BMP180;3986;41.884;23.466;2022-10-16T16:32:38;92942.00;;;15.10
7882;BMP180;3986;41.884;23.466;2022-10-16T16:35:05;92906.00;;;15.50
7882;BMP180;3986;41.884;23.466;2022-10-16T16:37:32;92924.00;;;14.30
7882;BMP180;3986;41.884;23.466;2022-10-16T16:39:59;92925.00;;;14.00
7882;BMP180;3986;41.884;23.466;2022-10-16T16:42:27;92935.00;;;14.40
7882;BMP180;3986;41.884;23.466;2022-10-16T16:44:54;92938.00;;;13.90
7882;BMP180;3986;41.884;23.466;2022-10-16T16:47:21;92948.00;;;14.10
7882;BMP180;3986;41.884;23.466;2022-10-16T16:49:49;92960.00;;;14.10
7882;BMP180;3986;41.884;23.466;2022-10-16T16:52:17;92967.00;;;13.70
7882;BMP180;3986;41.884;23.466;2022-10-16T16:54:48;92832.00;;;13.80
7882;BMP180;3986;41.884;23.466;2022-10-16T16:57:17;92959.00;;;13.70
7882;BMP180;3986;41.884;23.466;2022-10-16T16:59:50;92957.00;;;13.00
7882;BMP180;3986;41.884;23.466;2022-10-16T17:02:17;92969.00;;;13.20
7882;BMP180;3986;41.884;23.466;2022-10-16T17:04:44;92970.00;;;13.40
7882;BMP180;3986;41.884;23.466;2022-10-16T17:07:11;92966.00;;;13.30
7882;BMP180;3986;41.884;23.466;2022-10-16T17:09:38;92969.00;;;13.00
7882;BMP180;3986;41.884;23.466;2022-10-16T17:12:04;92972.00;;;13.20
7882;BMP180;3986;41.884;23.466;2022-10-16T17:14:31;92978.00;;;13.20
7882;BMP180;3986;41.884;23.466;2022-10-16T17:17:00;92945.00;;;12.90
7882;BMP180;3986;41.884;23.466;2022-10-16T17:19:26;92976.00;;;13.20
7882;BMP180;3986;41.884;23.466;2022-10-16T17:21:53;92981.00;;;13.10
7882;BMP180;3986;41.884;23.466;2022-10-16T17:24:20;92996.00;;;13.60
7882;BMP180;3986;41.884;23.466;2022-10-16T17:26:47;92954.00;;;12.70
7882;BMP180;3986;41.884;23.466;2022-10-16T17:29:15;93007.00;;;12.40
7882;BMP180;3986;41.884;23.466;2022-10-16T17:31:42;92998.00;;;12.70
7882;BMP180;3986;41.884;23.466;2022-10-16T17:34:11;93005.00;;;13.10
7882;BMP180;3986;41.884;23.466;2022-10-16T17:36:39;93001.00;;;13.20
7882;BMP180;3986;41.884;23.466;2022-10-16T17:39:10;92998.00;;;13.20
7882;BMP180;3986;41.884;23.466;2022-10-16T17:41:38;92997.00;;;13.40
7882;BMP180;3986;41.884;23.466;2022-10-16T17:44:05;92997.00;;;12.40
7882;BMP180;3986;41.884;23.466;2022-10-16T17:46:33;93001.00;;;12.30
7882;BMP180;3986;41.884;23.466;2022-10-16T17:49:00;93009.00;;;11.50
7882;BMP180;3986;41.884;23.466;2022-10-16T17:51:29;93006.00;;;11.50
7882;BMP180;3986;41.884;23.466;2022-10-16T17:53:57;93004.00;;;11.70
7882;BMP180;3986;41.884;23.466;2022-10-16T17:56:26;93033.00;;;11.40
7882;BMP180;3986;41.884;23.466;2022-10-16T17:58:54;93027.00;;;11.40
7882;BMP180;3986;41.884;23.466;2022-10-16T18:01:23;93007.00;;;11.30
7882;BMP180;3986;41.884;23.466;2022-10-16T18:03:50;93020.00;;;11.80
7882;BMP180;3986;41.884;23.466;2022-10-16T18:06:18;93022.00;;;12.00
7882;BMP180;3986;41.884;23.466;2022-10-16T18:08:47;93024.00;;;11.70
7882;BMP180;3986;41.884;23.466;2022-10-16T18:11:14;93029.00;;;11.40
7882;BMP180;3986;41.884;23.466;2022-10-16T18:13:40;93030.00;;;11.10
7882;BMP180;3986;41.884;23.466;2022-10-16T18:16:10;93027.00;;;10.80
7882;BMP180;3986;41.884;23.466;2022-10-16T18:18:38;92995.00;;;10.90
7882;BMP180;3986;41.884;23.466;2022-10-16T18:21:07;93034.00;;;11.50
7882;BMP180;3986;41.884;23.466;2022-10-16T18:23:35;93059.00;;;11.80
7882;BMP180;3986;41.884;23.466;2022-10-16T18:26:05;93066.00;;;11.10
7882;BMP180;3986;41.884;23.466;2022-10-16T18:28:32;93045.00;;;10.80
7882;BMP180;3986;41.884;23.466;2022-10-16T18:31:01;93051.00;;;10.50
7882;BMP180;3986;41.884;23.466;2022-10-16T18:33:29;93056.00;;;10.00
7882;BMP180;3986;41.884;23.466;2022-10-16T18:36:00;93071.00;;;11.70
7882;BMP180;3986;41.884;23.466;2022-10-16T18:38:28;93061.00;;;11.80
7882;BMP180;3986;41.884;23.466;2022-10-16T18:40:55;93061.00;;;10.70
7882;BMP180;3986;41.884;23.466;2022-10-16T18:43:25;93069.00;;;11.30
7882;BMP180;3986;41.884;23.466;2022-10-16T18:45:56;93092.00;;;11.10
7882;BMP180;3986;41.884;23.466;2022-10-16T18:48:23;93079.00;;;11.50
7882;BMP180;3986;41.884;23.466;2022-10-16T18:50:50;93083.00;;;11.70
7882;BMP180;3986;41.884;23.466;2022-10-16T18:53:17;93026.00;;;11.70
7882;BMP180;3986;41.884;23.466;2022-10-16T18:55:50;93100.00;;;11.60
7882;BMP180;3986;41.884;23.466;2022-10-16T18:58:17;93094.00;;;10.30
7882;BMP180;3986;41.884;23.466;2022-10-16T19:00:45;93093.00;;;10.90
7882;BMP180;3986;41.884;23.466;2022-10-16T19:03:12;93095.00;;;11.10
7882;BMP180;3986;41.884;23.466;2022-10-16T19:05:39;93098.00;;;11.20
7882;BMP180;3986;41.884;23.466;2022-10-16T19:08:06;93099.00;;;9.50
7882;BMP180;3986;41.884;23.466;2022-10-16T19:10:35;93109.00;;;9.30
7882;BMP180;3986;41.884;23.466;2022-10-16T19:13:02;93105.00;;;9.20
7882;BMP180;3986;41.884;23.466;2022-10-16T19:15:29;93109.00;;;10.30
7882;BMP180;3986;41.884;23.466;2022-10-16T19:17:57;93112.00;;;10.40
7882;BMP180;3986;41.884;23.466;2022-10-16T19:20:24;93145.00;;;10.90
7882;BMP180;3986;41.884;23.466;2022-10-16T19:22:51;93122.00;;;10.80
7882;BMP180;3986;41.884;23.466;2022-10-16T19:25:22;93116.00;;;10.40
7882;BMP180;3986;41.884;23.466;2022-10-16T19:27:49;93122.00;;;9.40
7882;BMP180;3986;41.884;23.466;2022-10-16T19:30:17;93133.00;;;9.70
7882;BMP180;3986;41.884;23.466;2022-10-16T19:32:44;93121.00;;;9.10
7882;BMP180;3986;41.884;23.466;2022-10-16T19:35:15;93147.00;;;10.00
7882;BMP180;3986;41.884;23.466;2022-10-16T19:37:42;93122.00;;;10.10
7882;BMP180;3986;41.884;23.466;2022-10-16T19:40:09;93129.00;;;10.00
7882;BMP180;3986;41.884;23.466;2022-10-16T19:42:36;93131.00;;;9.30
7882;BMP180;3986;41.884;23.466;2022-10-16T19:45:09;93132.00;;;9.30
7882;BMP180;3986;41.884;23.466;2022-10-16T19:47:36;93131.00;;;9.20
7882;BMP180;3986;41.884;23.466;2022-10-16T19:50:06;93132.00;;;9.30
7882;BMP180;3986;41.884;23.466;2022-10-16T19:52:36;93131.00;;;9.90
7882;BMP180;3986;41.884;23.466;2022-10-16T19:55:03;93138.00;;;10.10
7882;BMP180;3986;41.884;23.466;2022-10-16T19:57:32;93109.00;;;9.90
7882;BMP180;3986;41.884;23.466;2022-10-16T19:59:59;93143.00;;;9.40
7882;BMP180;3986;41.884;23.466;2022-10-16T20:02:26;93151.00;;;9.50
7882;BMP180;3986;41.884;23.466;2022-10-16T20:04:53;93143.00;;;9.20
7882;BMP180;3986;41.884;23.466;2022-10-16T20:07:20;93145.00;;;9.00
7882;BMP180;3986;41.884;23.466;2022-10-16T20:09:49;93146.00;;;9.60
7882;BMP180;3986;41.884;23.466;2022-10-16T20:12:16;93147.00;;;9.50
7882;BMP180;3986;41.884;23.466;2022-10-16T20:14:43;93151.00;;;9.50
7882;BMP180;3986;41.884;23.466;2022-10-16T20:17:11;93159.00;;;9.20
7882;BMP180;3986;41.884;23.466;2022-10-16T20:19:38;93160.00;;;9.40
7882;BMP180;3986;41.884;23.466;2022-10-16T20:22:05;93162.00;;;9.10
7882;BMP180;3986;41.884;23.466;2022-10-16T20:24:32;93177.00;;;8.90
7882;BMP180;3986;41.884;23.466;2022-10-16T20:27:00;93161.00;;;9.20
7882;BMP180;3986;41.884;23.466;2022-10-16T20:29:27;93158.00;;;9.30
7882;BMP180;3986;41.884;23.466;2022-10-16T20:31:54;93147.00;;;9.10
7882;BMP180;3986;41.884;23.466;2022-10-16T20:34:20;93129.00;;;9.20
7882;BMP180;3986;41.884;23.466;2022-10-16T20:36:47;93168.00;;;9.40
7882;BMP180;3986;41.884;23.466;2022-10-16T20:39:15;93147.00;;;8.50
7882;BMP180;3986;41.884;23.466;2022-10-16T20:41:42;93160.00;;;7.80
7882;BMP180;3986;41.884;23.466;2022-10-16T20:44:10;93092.00;;;7.90
7882;BMP180;3986;41.884;23.466;2022-10-16T20:46:37;93158.00;;;7.90
7882;BMP180;3986;41.884;23.466;2022-10-16T20:49:04;93125.00;;;7.90
7882;BMP180;3986;41.884;23.466;2022-10-16T20:51:31;93161.00;;;8.70
7882;BMP180;3986;41.884;23.466;2022-10-16T20:53:59;93198.00;;;8.90
7882;BMP180;3986;41.884;23.466;2022-10-16T20:56:27;93170.00;;;9.10
7882;BMP180;3986;41.884;23.466;2022-10-16T20:58:55;93205.00;;;9.10
7882;BMP180;3986;41.884;23.466;2022-10-16T21:01:24;93166.00;;;8.70
7882;BMP180;3986;41.884;23.466;2022-10-16T21:03:52;93161.00;;;7.70
7882;BMP180;3986;41.884;23.466;2022-10-16T21:06:20;93168.00;;;7.70
7882;BMP180;3986;41.884;23.466;2022-10-16T21:08:47;93188.00;;;8.40
7882;BMP180;3986;41.884;23.466;2022-10-16T21:11:15;93004.00;;;8.60
7882;BMP180;3986;41.884;23.466;2022-10-16T21:13:43;93021.00;;;8.40
7882;BMP180;3986;41.884;23.466;2022-10-16T21:16:11;93164.00;;;8.00
7882;BMP180;3986;41.884;23.466;2022-10-16T21:18:40;93171.00;;;8.50
7882;BMP180;3986;41.884;23.466;2022-10-16T21:21:08;93174.00;;;8.40
7882;BMP180;3986;41.884;23.466;2022-10-16T21:23:35;93018.00;;;7.80
7882;BMP180;3986;41.884;23.466;2022-10-16T21:26:03;93177.00;;;7.60
7882;BMP180;3986;41.884;23.466;2022-10-16T21:28:30;93173.00;;;7.80
7882;BMP180;3986;41.884;23.466;2022-10-16T21:30:57;93170.00;;;8.40
7882;BMP180;3986;41.884;23.466;2022-10-16T21:33:27;93168.00;;;8.30
7882;BMP180;3986;41.884;23.466;2022-10-16T21:36:00;93156.00;;;7.90
7882;BMP180;3986;41.884;23.466;2022-10-16T21:38:27;93175.00;;;8.10
7882;BMP180;3986;41.884;23.466;2022-10-16T21:40:53;93177.00;;;8.30
7882;BMP180;3986;41.884;23.466;2022-10-16T21:43:20;93177.00;;;8.00
7882;BMP180;3986;41.884;23.466;2022-10-16T21:45:47;93182.00;;;7.50
7882;BMP180;3986;41.884;23.466;2022-10-16T21:48:14;93186.00;;;7.70
7882;BMP180;3986;41.884;23.466;2022-10-16T21:50:46;93184.00;;;7.90
7882;BMP180;3986;41.884;23.466;2022-10-16T21:53:14;93189.00;;;8.00
7882;BMP180;3986;41.884;23.466;2022-10-16T21:55:41;93183.00;;;7.60
7882;BMP180;3986;41.884;23.466;2022-10-16T21:58:08;93188.00;;;7.80
7882;BMP180;3986;41.884;23.466;2022-10-16T22:00:35;93192.00;;;7.70
7882;BMP180;3986;41.884;23.466;2022-10-16T22:03:02;93192.00;;;7.90
7882;BMP180;3986;41.884;23.466;2022-10-16T22:05:29;93189.00;;;7.80
7882;BMP180;3986;41.884;23.466;2022-10-16T22:07:55;93197.00;;;8.00
7882;BMP180;3986;41.884;23.466;2022-10-16T22:10:24;93192.00;;;7.60
7882;BMP180;3986;41.884;23.466;2022-10-16T22:12:50;93200.00;;;7.40
7882;BMP180;3986;41.884;23.466;2022-10-16T22:15:17;93174.00;;;7.60
7882;BMP180;3986;41.884;23.466;2022-10-16T22:17:44;93205.00;;;7.20
7882;BMP180;3986;41.884;23.466;2022-10-16T22:20:11;93197.00;;;6.70
7882;BMP180;3986;41.884;23.466;2022-10-16T22:22:38;93197.00;;;6.10
7882;BMP180;3986;41.884;23.466;2022-10-16T22:25:05;93203.00;;;6.10
7882;BMP180;3986;41.884;23.466;2022-10-16T22:27:34;93204.00;;;6.80
7882;BMP180;3986;41.884;23.466;2022-10-16T22:30:00;93198.00;;;6.50
7882;BMP180;3986;41.884;23.466;2022-10-16T22:32:27;93194.00;;;6.10
7882;BMP180;3986;41.884;23.466;2022-10-16T22:34:54;93200.00;;;6.20
7882;BMP180;3986;41.884;23.466;2022-10-16T22:37:21;93204.00;;;6.10
7882;BMP180;3986;41.884;23.466;2022-10-16T22:39:47;93201.00;;;6.50
7882;BMP180;3986;41.884;23.466;2022-10-16T22:42:14;93209.00;;;6.40
7882;BMP180;3986;41.884;23.466;2022-10-16T22:44:42;93211.00;;;7.10
7882;BMP180;3986;41.884;23.466;2022-10-16T22:47:09;93211.00;;;7.00
7882;BMP180;3986;41.884;23.466;2022-10-16T22:49:36;93211.00;;;7.30
7882;BMP180;3986;41.884;23.466;2022-10-16T22:52:03;93212.00;;;7.10
7882;BMP180;3986;41.884;23.466;2022-10-16T22:54:30;93207.00;;;6.20
7882;BMP180;3986;41.884;23.466;2022-10-16T22:56:56;93209.00;;;6.50
7882;BMP180;3986;41.884;23.466;2022-10-16T22:59:23;93205.00;;;6.50
7882;BMP180;3986;41.884;23.466;2022-10-16T23:01:51;93202.00;;;6.20
7882;BMP180;3986;41.884;23.466;2022-10-16T23:04:18;93205.00;;;6.60
7882;BMP180;3986;41.884;23.466;2022-10-16T23:06:45;93211.00;;;6.50
7882;BMP180;3986;41.884;23.466;2022-10-16T23:09:11;93208.00;;;5.90
7882;BMP180;3986;41.884;23.466;2022-10-16T23:11:38;93206.00;;;6.40
7882;BMP180;3986;41.884;23.466;2022-10-16T23:14:05;93187.00;;;6.00
7882;BMP180;3986;41.884;23.466;2022-10-16T23:16:32;93218.00;;;6.50
7882;BMP180;3986;41.884;23.466;2022-10-16T23:19:00;93215.00;;;6.80
7882;BMP180;3986;41.884;23.466;2022-10-16T23:21:27;93221.00;;;6.60
7882;BMP180;3986;41.884;23.466;2022-10-16T23:23:53;93223.00;;;6.30
7882;BMP180;3986;41.884;23.466;2022-10-16T23:26:22;93231.00;;;5.60
7882;BMP180;3986;41.884;23.466;2022-10-16T23:28:49;93235.00;;;5.50
7882;BMP180;3986;41.884;23.466;2022-10-16T23:31:16;93230.00;;;6.00
7882;BMP180;3986;41.884;23.466;2022-10-16T23:33:43;93238.00;;;6.60
7882;BMP180;3986;41.884;23.466;2022-10-16T23:36:14;93247.00;;;6.60
7882;BMP180;3986;41.884;23.466;2022-10-16T23:38:41;93250.00;;;6.80
7882;BMP180;3986;41.884;23.466;2022-10-16T23:41:09;93246.00;;;6.70
7882;BMP180;3986;41.884;23.466;2022-10-16T23:43:36;93202.00;;;6.70
7882;BMP180;3986;41.884;23.466;2022-10-16T23:46:05;93255.00;;;6.70
7882;BMP180;3986;41.884;23.466;2022-10-16T23:48:32;93194.00;;;6.60
7882;BMP180;3986;41.884;23.466;2022-10-16T23:51:00;93217.00;;;6.70
7882;BMP180;3986;41.884;23.466;2022-10-16T23:53:28;93254.00;;;6.40
7882;BMP180;3986;41.884;23.466;2022-10-16T23:55:55;93253.00;;;6.20
7882;BMP180;3986;41.884;23.466;2022-10-16T23:58:22;93258.00;;;6.10
